createdAt,value
2018-07-22T00:00:15.366Z,83.8
2018-07-22T00:01:16.988Z,83.3
2018-07-22T00:02:18.684Z,84.0
2018-07-22T00:03:20.403Z,83.9
2018-07-22T00:04:22.105Z,83.9
2018-07-22T00:05:23.750Z,83.4
2018-07-22T00:06:25.491Z,84.1
2018-07-22T00:07:27.189Z,83.2
2018-07-22T00:08:28.840Z,83.2
2018-07-22T00:09:30.554Z,83.2
2018-07-22T00:10:32.091Z,83.6
2018-07-22T00:11:33.893Z,83.7
2018-07-22T00:12:35.635Z,83.1
2018-07-22T00:13:37.262Z,83.1
2018-07-22T00:14:38.966Z,83.2
2018-07-22T00:15:40.700Z,84.2
2018-07-22T00:16:42.349Z,84.0
2018-07-22T00:17:43.989Z,84.6
2018-07-22T00:18:45.691Z,85.1
2018-07-22T00:19:47.435Z,84.7
2018-07-22T00:20:49.158Z,85.1
2018-07-22T00:21:50.771Z,84.9
2018-07-22T00:22:52.575Z,84.7
2018-07-22T00:23:54.229Z,85.3
2018-07-22T00:24:55.968Z,85.2
2018-07-22T00:25:57.575Z,85.0
2018-07-22T00:26:59.317Z,85.6
2018-07-22T00:28:01.015Z,84.7
2018-07-22T00:29:02.686Z,85.1
2018-07-22T00:30:04.451Z,85.2
2018-07-22T00:31:06.229Z,85.3
2018-07-22T00:32:07.912Z,84.7
2018-07-22T00:33:09.612Z,84.7
2018-07-22T00:34:11.364Z,85.3
2018-07-22T00:35:13.058Z,85.6
2018-07-22T00:36:14.749Z,85.8
2018-07-22T00:37:16.409Z,85.9
2018-07-22T00:38:18.052Z,85.8
2018-07-22T00:39:19.891Z,85.1
2018-07-22T00:40:21.594Z,85.4
2018-07-22T00:41:23.354Z,85.1
2018-07-22T00:42:24.970Z,85.6
2018-07-22T00:43:26.523Z,85.1
2018-07-22T00:44:28.271Z,85.5
2018-07-22T00:45:29.867Z,86.2
2018-07-22T00:46:31.633Z,86.2
2018-07-22T00:47:33.323Z,85.5
2018-07-22T00:48:34.880Z,85.8
2018-07-22T00:49:36.522Z,85.8
2018-07-22T00:50:38.238Z,86.0
2018-07-22T00:51:39.879Z,85.5
2018-07-22T00:52:41.366Z,85.3
2018-07-22T00:53:43.097Z,85.8
2018-07-22T00:54:44.753Z,86.0
2018-07-22T00:55:46.480Z,86.6
2018-07-22T00:56:48.118Z,86.4
2018-07-22T00:57:49.743Z,86.4
2018-07-22T00:58:51.426Z,86.4
2018-07-22T00:59:53.049Z,86.1
2018-07-22T01:00:54.747Z,86.2
2018-07-22T01:01:56.430Z,86.0
2018-07-22T01:02:58.149Z,86.2
2018-07-22T01:03:59.785Z,86.2
2018-07-22T01:05:01.502Z,86.2
2018-07-22T01:06:03.149Z,86.2
2018-07-22T01:07:04.844Z,86.1
2018-07-22T01:08:06.516Z,86.0
2018-07-22T01:09:08.316Z,86.2
2018-07-22T01:10:10.027Z,86.0
2018-07-22T01:11:11.659Z,85.6
2018-07-22T01:12:13.316Z,85.6
2018-07-22T01:13:14.984Z,85.7
2018-07-22T01:14:16.665Z,85.1
2018-07-22T01:15:18.345Z,85.5
2018-07-22T01:16:20.036Z,85.1
2018-07-22T01:17:21.748Z,85.6
2018-07-22T01:18:23.451Z,85.6
2018-07-22T01:19:25.165Z,85.3
2018-07-22T01:20:26.874Z,85.6
2018-07-22T01:21:28.536Z,85.3
2018-07-22T01:22:30.302Z,85.0
2018-07-22T01:23:32.053Z,85.3
2018-07-22T01:24:33.612Z,85.7
2018-07-22T01:25:35.334Z,85.8
2018-07-22T01:26:37.105Z,85.7
2018-07-22T01:27:38.631Z,85.9
2018-07-22T01:28:40.310Z,85.9
2018-07-22T01:29:42.011Z,86.1
2018-07-22T01:30:43.555Z,86.3
2018-07-22T01:31:45.193Z,86.3
2018-07-22T01:32:46.843Z,86.2
2018-07-22T01:33:48.551Z,86.6
2018-07-22T01:34:50.306Z,86.1
2018-07-22T01:35:52.097Z,86.2
2018-07-22T01:36:53.708Z,87.1
2018-07-22T01:37:55.284Z,86.2
2018-07-22T01:38:56.832Z,85.9
2018-07-22T01:39:58.494Z,86.9
2018-07-22T01:41:00.209Z,86.5
2018-07-22T01:42:01.879Z,86.7
2018-07-22T01:43:03.587Z,86.5
2018-07-22T01:44:05.240Z,86.5
2018-07-22T01:45:06.948Z,86.6
2018-07-22T01:46:08.595Z,86.7
2018-07-22T01:47:10.201Z,86.3
2018-07-22T01:48:11.871Z,86.7
2018-07-22T01:49:13.617Z,86.5
2018-07-22T01:50:15.143Z,86.6
2018-07-22T01:51:16.842Z,86.1
2018-07-22T01:52:18.502Z,86.2
2018-07-22T01:53:20.215Z,86.7
2018-07-22T01:54:21.923Z,86.8
2018-07-22T01:55:23.525Z,86.7
2018-07-22T01:56:25.118Z,86.7
2018-07-22T01:57:26.622Z,86.7
2018-07-22T01:58:28.238Z,86.8
2018-07-22T01:59:29.909Z,86.9
2018-07-22T02:00:31.663Z,86.5
2018-07-22T02:01:33.379Z,86.7
2018-07-22T02:02:34.957Z,86.8
2018-07-22T02:03:36.634Z,86.5
2018-07-22T02:04:38.198Z,86.6
2018-07-22T02:05:39.849Z,86.6
2018-07-22T02:06:41.392Z,86.8
2018-07-22T02:07:43.110Z,86.9
2018-07-22T02:08:44.700Z,86.7
2018-07-22T02:09:46.163Z,86.3
2018-07-22T02:10:47.921Z,87.5
2018-07-22T02:11:49.554Z,87.4
2018-07-22T02:12:51.164Z,87.0
2018-07-22T02:13:52.825Z,86.8
2018-07-22T02:14:54.358Z,86.7
2018-07-22T02:15:55.998Z,86.7
2018-07-22T02:16:57.648Z,86.6
2018-07-22T02:17:59.155Z,87.4
2018-07-22T02:19:00.658Z,87.6
2018-07-22T02:20:02.205Z,87.6
2018-07-22T02:21:03.769Z,87.0
2018-07-22T02:22:05.500Z,87.9
2018-07-22T02:23:07.250Z,87.8
2018-07-22T02:24:08.969Z,87.7
2018-07-22T02:25:10.700Z,87.6
2018-07-22T02:26:12.309Z,87.8
2018-07-22T02:27:13.961Z,87.8
2018-07-22T02:28:15.551Z,87.6
2018-07-22T02:29:17.183Z,87.8
2018-07-22T02:30:18.877Z,87.9
2018-07-22T02:31:20.471Z,87.9
2018-07-22T02:32:22.215Z,88.3
2018-07-22T02:33:23.748Z,88.1
2018-07-22T02:34:25.293Z,87.8
2018-07-22T02:35:26.910Z,87.9
2018-07-22T02:36:28.544Z,88.4
2018-07-22T02:37:30.147Z,88.3
2018-07-22T02:38:31.601Z,89.2
2018-07-22T02:39:33.261Z,88.8
2018-07-22T02:40:34.953Z,89.1
2018-07-22T02:41:36.605Z,89.5
2018-07-22T02:42:38.301Z,88.9
2018-07-22T02:43:39.994Z,89.5
2018-07-22T02:44:41.659Z,89.3
2018-07-22T02:45:43.380Z,89.6
2018-07-22T02:46:45.067Z,89.3
2018-07-22T02:47:46.623Z,89.9
2018-07-22T02:48:48.207Z,89.7
2018-07-22T02:49:49.962Z,89.3
2018-07-22T02:50:51.625Z,89.8
2018-07-22T02:51:53.198Z,90.2
2018-07-22T02:52:54.740Z,89.5
2018-07-22T02:53:56.231Z,89.6
2018-07-22T02:54:57.731Z,90.2
2018-07-22T02:55:59.284Z,90.2
2018-07-22T02:57:00.981Z,90.0
2018-07-22T02:58:02.566Z,89.8
2018-07-22T02:59:04.279Z,90.3
2018-07-22T03:00:05.943Z,90.4
2018-07-22T03:01:07.558Z,91.4
2018-07-22T03:02:09.054Z,91.2
2018-07-22T03:03:10.654Z,90.8
2018-07-22T03:04:12.336Z,91.2
2018-07-22T03:05:14.025Z,91.2
2018-07-22T03:06:15.754Z,91.3
2018-07-22T03:07:17.429Z,91.2
2018-07-22T03:08:19.152Z,91.9
2018-07-22T03:09:20.803Z,91.7
2018-07-22T03:10:22.432Z,91.8
2018-07-22T03:11:24.120Z,91.3
2018-07-22T03:12:25.738Z,91.5
2018-07-22T03:13:27.354Z,91.4
2018-07-22T03:14:28.992Z,92.1
2018-07-22T03:15:30.743Z,91.8
2018-07-22T03:16:32.510Z,92.0
2018-07-22T03:17:34.204Z,92.1
2018-07-22T03:18:35.687Z,92.1
2018-07-22T03:19:37.189Z,92.1
2018-07-22T03:20:38.810Z,92.1
2018-07-22T03:21:40.421Z,92.1
2018-07-22T03:22:41.996Z,91.9
2018-07-22T03:23:43.494Z,92.1
2018-07-22T03:24:45.289Z,92.1
2018-07-22T03:25:46.788Z,92.0
2018-07-22T03:26:48.264Z,92.0
2018-07-22T03:27:49.909Z,92.4
2018-07-22T03:28:51.532Z,92.2
2018-07-22T03:29:53.223Z,92.1
2018-07-22T03:30:54.773Z,92.4
2018-07-22T03:31:56.454Z,92.1
2018-07-22T03:32:58.067Z,92.1
2018-07-22T03:33:59.788Z,92.2
2018-07-22T03:35:01.523Z,92.9
2018-07-22T03:36:03.224Z,92.1
2018-07-22T03:37:04.724Z,92.4
2018-07-22T03:38:06.435Z,92.3
2018-07-22T03:39:08.025Z,92.5
2018-07-22T03:40:09.612Z,92.2
2018-07-22T03:41:11.307Z,92.5
2018-07-22T03:42:12.991Z,92.2
2018-07-22T03:43:14.487Z,92.3
2018-07-22T03:44:16.058Z,92.0
2018-07-22T03:45:17.793Z,92.5
2018-07-22T03:46:19.553Z,92.7
2018-07-22T03:47:21.089Z,92.6
2018-07-22T03:48:22.636Z,92.6
2018-07-22T03:49:24.322Z,92.9
2018-07-22T03:50:25.929Z,93.0
2018-07-22T03:51:27.500Z,93.3
2018-07-22T03:52:29.007Z,93.0
2018-07-22T03:53:30.647Z,92.7
2018-07-22T03:54:32.286Z,92.6
2018-07-22T03:55:34.006Z,92.5
2018-07-22T03:56:35.600Z,93.1
2018-07-22T03:57:37.358Z,92.9
2018-07-22T03:58:39.050Z,93.4
2018-07-22T03:59:40.632Z,93.1
2018-07-22T04:00:42.293Z,93.1
2018-07-22T04:01:43.859Z,93.3
2018-07-22T04:02:45.453Z,92.9
2018-07-22T04:03:47.200Z,93.0
2018-07-22T04:04:48.882Z,92.9
2018-07-22T04:05:50.583Z,93.2
2018-07-22T04:06:52.219Z,93.3
2018-07-22T04:07:53.754Z,93.2
2018-07-22T04:08:55.238Z,93.0
2018-07-22T04:09:56.943Z,93.3
2018-07-22T04:10:58.614Z,93.2
2018-07-22T04:12:00.268Z,93.5
2018-07-22T04:13:01.899Z,93.3
2018-07-22T04:14:03.692Z,93.6
2018-07-22T04:15:05.286Z,93.9
2018-07-22T04:16:06.945Z,93.8
2018-07-22T04:17:08.595Z,94.0
2018-07-22T04:18:10.337Z,93.4
2018-07-22T04:19:12.015Z,92.9
2018-07-22T04:20:13.708Z,93.3
2018-07-22T04:21:15.360Z,93.3
2018-07-22T04:22:17.105Z,93.5
2018-07-22T04:23:18.861Z,93.1
2018-07-22T04:24:20.573Z,93.2
2018-07-22T04:25:22.351Z,93.0
2018-07-22T04:26:23.898Z,92.6
2018-07-22T04:27:25.588Z,92.6
2018-07-22T04:28:27.046Z,92.5
2018-07-22T04:29:28.713Z,92.4
2018-07-22T04:30:30.368Z,92.2
2018-07-22T04:31:32.092Z,92.7
2018-07-22T04:32:33.873Z,92.6
2018-07-22T04:33:35.504Z,92.7
2018-07-22T04:34:37.050Z,92.6
2018-07-22T04:35:38.602Z,92.6
2018-07-22T04:36:40.341Z,92.6
2018-07-22T04:37:42.087Z,92.6
2018-07-22T04:38:43.777Z,93.0
2018-07-22T04:39:45.415Z,92.2
2018-07-22T04:40:47.124Z,91.9
2018-07-22T04:41:48.768Z,91.8
2018-07-22T04:42:50.479Z,91.6
2018-07-22T04:43:52.258Z,91.0
2018-07-22T04:44:53.729Z,91.2
2018-07-22T04:45:55.346Z,91.4
2018-07-22T04:46:56.992Z,90.8
2018-07-22T04:47:58.723Z,90.7
2018-07-22T04:49:00.374Z,90.4
2018-07-22T04:50:02.026Z,90.6
2018-07-22T04:51:03.707Z,90.7
2018-07-22T04:52:05.328Z,90.8
2018-07-22T04:53:07.038Z,90.2
2018-07-22T04:54:08.730Z,90.1
2018-07-22T04:55:10.387Z,89.6
2018-07-22T04:56:12.077Z,89.7
2018-07-22T04:57:13.779Z,89.3
2018-07-22T04:58:15.306Z,88.8
2018-07-22T04:59:16.857Z,89.0
2018-07-22T05:00:18.442Z,88.1
2018-07-22T05:01:20.100Z,87.7
2018-07-22T05:02:21.780Z,87.5
2018-07-22T05:03:23.479Z,87.6
2018-07-22T05:04:25.229Z,87.7
2018-07-22T05:05:26.922Z,87.5
2018-07-22T05:06:28.514Z,86.9
2018-07-22T05:07:30.256Z,86.7
2018-07-22T05:08:31.861Z,86.8
2018-07-22T05:09:33.497Z,86.5
2018-07-22T05:10:35.081Z,86.2
2018-07-22T05:11:36.577Z,85.7
2018-07-22T05:12:38.323Z,86.1
2018-07-22T05:13:40.090Z,85.8
2018-07-22T05:14:41.588Z,86.5
2018-07-22T05:15:43.107Z,85.5
2018-07-22T05:16:44.709Z,84.8
2018-07-22T05:17:46.463Z,85.0
2018-07-22T05:18:48.071Z,85.6
2018-07-22T05:19:49.565Z,85.3
2018-07-22T05:20:51.146Z,84.7
2018-07-22T05:21:52.957Z,85.1
2018-07-22T05:22:54.420Z,85.3
2018-07-22T05:23:55.955Z,85.7
2018-07-22T05:24:57.580Z,84.8
2018-07-22T05:25:59.132Z,83.9
2018-07-22T05:27:00.810Z,83.7
2018-07-22T05:28:02.450Z,83.1
2018-07-22T05:29:04.124Z,82.7
2018-07-22T05:30:05.871Z,82.8
2018-07-22T05:31:07.572Z,83.0
2018-07-22T05:32:09.196Z,82.7
2018-07-22T05:33:10.784Z,81.9
2018-07-22T05:34:12.373Z,81.5
2018-07-22T05:35:14.063Z,81.0
2018-07-22T05:36:15.719Z,81.1
2018-07-22T05:37:17.370Z,80.4
2018-07-22T05:38:19.031Z,79.9
2018-07-22T05:39:21.259Z,80.0
2018-07-22T05:40:22.784Z,79.2
2018-07-22T05:41:24.451Z,79.2
2018-07-22T05:42:26.075Z,78.0
2018-07-22T05:43:27.727Z,78.1
2018-07-22T05:44:29.305Z,78.3
2018-07-22T05:45:30.842Z,78.7
2018-07-22T05:46:32.501Z,78.1
2018-07-22T05:47:34.254Z,77.2
2018-07-22T05:48:35.874Z,77.4
2018-07-22T05:49:37.586Z,77.2
2018-07-22T05:50:39.104Z,76.8
2018-07-22T05:51:40.817Z,77.1
2018-07-22T05:52:42.422Z,77.3
2018-07-22T05:53:43.961Z,77.6
2018-07-22T05:54:45.614Z,76.6
2018-07-22T05:55:47.309Z,77.0
2018-07-22T05:56:48.894Z,77.1
2018-07-22T05:57:50.592Z,77.3
2018-07-22T05:58:52.329Z,77.1
2018-07-22T05:59:54.041Z,77.4
2018-07-22T06:00:55.618Z,77.5
2018-07-22T06:01:57.270Z,77.0
2018-07-22T06:02:58.994Z,76.6
2018-07-22T06:04:00.672Z,76.1
2018-07-22T06:05:02.272Z,75.9
2018-07-22T06:06:04.078Z,75.5
2018-07-22T06:07:05.737Z,74.6
2018-07-22T06:08:07.473Z,75.0
2018-07-22T06:09:09.183Z,74.9
2018-07-22T06:10:10.899Z,74.9
2018-07-22T06:11:12.530Z,75.3
2018-07-22T06:12:14.212Z,75.1
2018-07-22T06:13:15.849Z,74.6
2018-07-22T06:14:17.549Z,75.7
2018-07-22T06:15:19.214Z,74.6
2018-07-22T06:16:20.846Z,74.3
2018-07-22T06:17:22.531Z,74.3
2018-07-22T06:18:24.235Z,75.1
2018-07-22T06:19:25.841Z,75.0
2018-07-22T06:20:27.512Z,74.7
2018-07-22T06:21:29.217Z,73.6
2018-07-22T06:22:30.907Z,72.9
2018-07-22T06:23:32.655Z,73.0
2018-07-22T06:24:34.325Z,73.4
2018-07-22T06:25:35.909Z,72.9
2018-07-22T06:26:37.556Z,71.5
2018-07-22T06:27:39.301Z,72.9
2018-07-22T06:28:40.947Z,71.6
2018-07-22T06:29:42.565Z,70.5
2018-07-22T06:30:44.222Z,70.3
2018-07-22T06:31:45.757Z,71.2
2018-07-22T06:32:47.404Z,70.5
2018-07-22T06:33:49.202Z,69.8
2018-07-22T06:34:50.872Z,69.8
2018-07-22T06:35:52.468Z,68.8
2018-07-22T06:36:54.110Z,69.2
2018-07-22T06:37:55.756Z,68.9
2018-07-22T06:38:57.375Z,70.1
2018-07-22T06:39:58.940Z,70.1
2018-07-22T06:41:00.564Z,69.9
2018-07-22T06:42:02.149Z,70.3
2018-07-22T06:43:03.823Z,70.7
2018-07-22T06:44:05.447Z,71.5
2018-07-22T06:45:07.052Z,71.3
2018-07-22T06:46:08.621Z,71.2
2018-07-22T06:47:10.348Z,71.5
2018-07-22T06:48:12.065Z,71.2
2018-07-22T06:49:13.659Z,71.1
2018-07-22T06:50:15.512Z,70.5
2018-07-22T06:51:17.260Z,70.2
2018-07-22T06:52:18.861Z,69.3
2018-07-22T06:53:20.651Z,69.1
2018-07-22T06:54:22.320Z,70.1
2018-07-22T06:55:24.015Z,68.8
2018-07-22T06:56:25.706Z,68.1
2018-07-22T06:57:27.431Z,69.2
2018-07-22T06:58:29.110Z,68.3
2018-07-22T06:59:30.675Z,66.0
2018-07-22T07:00:32.268Z,66.2
2018-07-22T07:01:34.017Z,66.1
2018-07-22T07:02:35.582Z,65.9
2018-07-22T07:03:37.458Z,66.7
2018-07-22T07:04:39.199Z,66.8
2018-07-22T07:05:40.944Z,67.2
2018-07-22T07:06:42.564Z,66.5
2018-07-22T07:07:44.297Z,65.6
2018-07-22T07:08:45.841Z,65.4
2018-07-22T07:09:47.480Z,65.4
2018-07-22T07:10:49.144Z,65.6
2018-07-22T07:11:50.734Z,65.5
2018-07-22T07:12:52.551Z,65.8
2018-07-22T07:13:54.208Z,66.1
2018-07-22T07:14:55.905Z,67.2
2018-07-22T07:15:57.655Z,66.4
2018-07-22T07:16:59.324Z,67.4
2018-07-22T07:18:00.978Z,68.0
2018-07-22T07:19:02.746Z,67.9
2018-07-22T07:20:04.358Z,68.8
2018-07-22T07:21:05.983Z,68.8
2018-07-22T07:22:07.817Z,68.7
2018-07-22T07:23:09.446Z,68.9
2018-07-22T07:24:11.139Z,68.9
2018-07-22T07:25:12.864Z,67.9
2018-07-22T07:26:14.486Z,65.7
2018-07-22T07:27:16.206Z,66.0
2018-07-22T07:28:17.884Z,67.4
2018-07-22T07:29:19.715Z,67.9
2018-07-22T07:30:21.345Z,66.8
2018-07-22T07:31:22.918Z,66.8
2018-07-22T07:32:24.622Z,65.8
2018-07-22T07:33:26.225Z,65.6
2018-07-22T07:34:27.871Z,65.4
2018-07-22T07:35:29.641Z,63.0
2018-07-22T07:36:31.317Z,63.5
2018-07-22T07:37:32.991Z,61.4
2018-07-22T07:38:34.641Z,62.0
2018-07-22T07:39:36.449Z,61.4
2018-07-22T07:40:38.305Z,60.8
2018-07-22T07:41:39.920Z,60.9
2018-07-22T07:42:41.659Z,61.3
2018-07-22T07:43:43.355Z,61.4
2018-07-22T07:44:45.011Z,62.2
2018-07-22T07:45:46.730Z,61.8
2018-07-22T07:46:48.357Z,63.5
2018-07-22T07:47:50.178Z,62.9
2018-07-22T07:48:52.018Z,62.4
2018-07-22T07:49:53.710Z,61.2
2018-07-22T07:50:55.446Z,61.2
2018-07-22T07:51:58.002Z,60.3
2018-07-22T07:52:59.657Z,61.5
2018-07-22T07:54:01.436Z,62.7
2018-07-22T07:55:03.147Z,62.6
2018-07-22T07:56:04.875Z,62.9
2018-07-22T07:57:06.462Z,61.4
2018-07-22T07:58:08.188Z,61.2
2018-07-22T07:59:09.839Z,60.5
2018-07-22T08:00:11.529Z,61.2
2018-07-22T08:01:13.209Z,61.5
2018-07-22T08:02:14.985Z,62.5
2018-07-22T08:03:16.736Z,61.7
2018-07-22T08:04:18.449Z,62.2
2018-07-22T08:05:20.185Z,62.8
2018-07-22T08:06:21.692Z,61.8
2018-07-22T08:07:23.448Z,62.2
2018-07-22T08:08:25.201Z,62.2
2018-07-22T08:09:26.926Z,61.4
2018-07-22T08:10:28.639Z,61.2
2018-07-22T08:11:30.329Z,61.4
2018-07-22T08:12:31.943Z,60.7
2018-07-22T08:13:33.663Z,61.3
2018-07-22T08:14:35.464Z,60.9
2018-07-22T08:15:37.110Z,60.0
2018-07-22T08:16:38.849Z,59.7
2018-07-22T08:17:40.497Z,59.0
2018-07-22T08:18:42.196Z,57.6
2018-07-22T08:19:43.860Z,55.8
2018-07-22T08:20:45.540Z,55.6
2018-07-22T08:21:47.289Z,55.5
2018-07-22T08:22:49.032Z,55.2
2018-07-22T08:23:50.822Z,54.8
2018-07-22T08:24:52.707Z,54.6
2018-07-22T08:25:54.454Z,55.4
2018-07-22T08:26:56.173Z,54.6
2018-07-22T08:27:57.843Z,52.8
2018-07-22T08:28:59.592Z,53.9
2018-07-22T08:30:01.289Z,54.4
2018-07-22T08:31:02.901Z,53.2
2018-07-22T08:32:04.749Z,53.2
2018-07-22T08:33:06.545Z,52.3
2018-07-22T08:34:08.231Z,52.2
2018-07-22T08:35:09.945Z,50.8
2018-07-22T08:36:11.694Z,51.2
2018-07-22T08:37:13.327Z,51.0
2018-07-22T08:38:15.066Z,52.8
2018-07-22T08:39:16.823Z,52.6
2018-07-22T08:40:18.529Z,53.0
2018-07-22T08:41:20.296Z,52.7
2018-07-22T08:42:21.887Z,50.6
2018-07-22T08:43:23.587Z,50.7
2018-07-22T08:44:25.315Z,51.3
2018-07-22T08:45:26.929Z,51.0
2018-07-22T08:46:28.636Z,50.4
2018-07-22T08:47:30.303Z,49.4
2018-07-22T08:48:32.070Z,48.9
2018-07-22T08:49:33.801Z,49.6
2018-07-22T08:50:35.472Z,48.9
2018-07-22T08:51:37.320Z,48.7
2018-07-22T08:52:38.943Z,46.9
2018-07-22T08:53:40.581Z,47.4
2018-07-22T08:54:42.304Z,49.6
2018-07-22T08:55:44.072Z,50.2
2018-07-22T08:56:45.796Z,51.3
2018-07-22T08:57:47.586Z,50.6
2018-07-22T08:58:49.201Z,49.8
2018-07-22T08:59:50.957Z,48.9
2018-07-22T09:00:53.562Z,46.9
2018-07-22T09:01:55.199Z,47.6
2018-07-22T09:02:56.826Z,48.7
2018-07-22T09:03:58.582Z,47.3
2018-07-22T09:05:00.172Z,46.8
2018-07-22T09:06:01.906Z,45.5
2018-07-22T09:07:03.590Z,47.0
2018-07-22T09:08:05.345Z,45.3
2018-07-22T09:09:07.025Z,46.4
2018-07-22T09:10:08.637Z,48.7
2018-07-22T09:11:10.328Z,46.1
2018-07-22T09:12:12.125Z,46.6
2018-07-22T09:13:13.839Z,46.5
2018-07-22T09:14:15.518Z,46.8
2018-07-22T09:15:17.318Z,46.8
2018-07-22T09:16:19.204Z,43.2
2018-07-22T09:17:21.024Z,43.8
2018-07-22T09:18:22.739Z,43.7
2018-07-22T09:19:24.490Z,43.5
2018-07-22T09:20:26.210Z,43.2
2018-07-22T09:21:27.952Z,43.3
2018-07-22T09:22:29.637Z,44.7
2018-07-22T09:23:31.307Z,45.0
2018-07-22T09:24:33.108Z,43.5
2018-07-22T09:25:34.889Z,43.5
2018-07-22T09:26:36.625Z,43.9
2018-07-22T09:27:38.446Z,44.6
2018-07-22T09:28:40.133Z,43.5
2018-07-22T09:29:41.892Z,44.4
2018-07-22T09:30:43.598Z,43.4
2018-07-22T09:31:45.226Z,42.3
2018-07-22T09:32:46.966Z,43.1
2018-07-22T09:33:48.662Z,42.3
2018-07-22T09:34:50.467Z,42.9
2018-07-22T09:35:52.201Z,42.3
2018-07-22T09:36:53.887Z,42.3
2018-07-22T09:37:55.675Z,41.0
2018-07-22T09:38:57.338Z,40.0
2018-07-22T09:39:59.095Z,40.7
2018-07-22T09:41:00.815Z,40.7
2018-07-22T09:42:02.499Z,41.7
2018-07-22T09:43:04.228Z,42.5
2018-07-22T09:44:05.934Z,40.0
2018-07-22T09:45:07.702Z,40.2
2018-07-22T09:46:09.375Z,41.4
2018-07-22T09:47:11.155Z,41.1
2018-07-22T09:48:12.911Z,40.8
2018-07-22T09:49:14.604Z,39.2
2018-07-22T09:50:16.393Z,39.3
2018-07-22T09:51:18.001Z,40.0
2018-07-22T09:52:19.702Z,39.3
2018-07-22T09:53:21.355Z,38.1
2018-07-22T09:54:23.081Z,38.3
2018-07-22T09:55:24.788Z,36.4
2018-07-22T09:56:26.455Z,38.1
2018-07-22T09:57:28.280Z,36.0
2018-07-22T09:58:30.016Z,36.1
2018-07-22T09:59:31.716Z,36.8
2018-07-22T10:00:33.444Z,37.8
2018-07-22T10:01:35.291Z,37.8
2018-07-22T10:02:36.960Z,37.0
2018-07-22T10:03:38.716Z,37.0
2018-07-22T10:04:40.700Z,36.2
2018-07-22T10:05:42.307Z,36.3
2018-07-22T10:06:44.254Z,36.3
2018-07-22T10:07:45.987Z,33.8
2018-07-22T10:08:47.665Z,34.5
2018-07-22T10:09:49.475Z,36.7
2018-07-22T10:10:51.168Z,36.2
2018-07-22T10:11:52.938Z,36.8
2018-07-22T10:12:54.613Z,34.8
2018-07-22T10:13:56.317Z,34.5
2018-07-22T10:14:58.091Z,33.6
2018-07-22T10:15:59.754Z,34.1
2018-07-22T10:17:01.465Z,32.9
2018-07-22T10:18:03.171Z,33.1
2018-07-22T10:19:04.929Z,32.8
2018-07-22T10:20:06.676Z,33.0
2018-07-22T10:21:08.711Z,32.8
2018-07-22T10:22:10.596Z,33.1
2018-07-22T10:23:12.448Z,32.8
2018-07-22T10:24:14.171Z,32.8
2018-07-22T10:25:16.128Z,31.3
2018-07-22T10:26:17.889Z,31.5
2018-07-22T10:27:19.781Z,33.5
2018-07-22T10:28:21.638Z,33.0
2018-07-22T10:29:23.422Z,32.4
2018-07-22T10:30:25.117Z,32.8
2018-07-22T10:31:26.872Z,32.3
2018-07-22T10:32:28.593Z,32.4
2018-07-22T10:33:30.391Z,32.0
2018-07-22T10:34:32.118Z,31.4
2018-07-22T10:35:33.850Z,31.0
2018-07-22T10:36:35.664Z,31.1
2018-07-22T10:37:37.419Z,31.0
2018-07-22T10:38:39.149Z,30.7
2018-07-22T10:39:41.135Z,31.8
2018-07-22T10:40:42.981Z,31.9
2018-07-22T10:41:44.599Z,30.7
2018-07-22T10:42:46.325Z,31.1
2018-07-22T10:43:48.053Z,31.3
2018-07-22T10:44:49.808Z,30.8
2018-07-22T10:45:51.527Z,30.9
2018-07-22T10:46:53.380Z,30.6
2018-07-22T10:47:55.089Z,31.2
2018-07-22T10:48:57.039Z,30.8
2018-07-22T10:49:58.805Z,30.8
2018-07-22T10:51:00.754Z,31.2
2018-07-22T10:52:02.435Z,31.5
2018-07-22T10:53:04.164Z,32.1
2018-07-22T10:54:05.902Z,30.8
2018-07-22T10:55:07.631Z,31.7
2018-07-22T10:56:09.354Z,30.8
2018-07-22T10:57:11.058Z,30.5
2018-07-22T10:58:12.850Z,30.7
2018-07-22T10:59:14.625Z,30.8
2018-07-22T11:00:16.493Z,30.4
2018-07-22T11:01:18.225Z,30.8
2018-07-22T11:02:19.952Z,30.6
2018-07-22T11:03:21.781Z,30.3
2018-07-22T11:04:23.609Z,30.3
2018-07-22T11:05:25.423Z,29.7
2018-07-22T11:06:27.223Z,29.0
2018-07-22T11:07:28.979Z,31.1
2018-07-22T11:08:30.777Z,32.0
2018-07-22T11:09:32.562Z,31.8
2018-07-22T11:10:34.475Z,31.9
2018-07-22T11:11:36.311Z,30.5
2018-07-22T11:12:38.015Z,31.4
2018-07-22T11:13:39.726Z,31.3
2018-07-22T11:14:41.644Z,31.4
2018-07-22T11:15:43.243Z,31.3
2018-07-22T11:16:44.941Z,30.8
2018-07-22T11:17:46.867Z,29.3
2018-07-22T11:18:48.583Z,30.1
2018-07-22T11:19:50.293Z,29.5
2018-07-22T11:20:52.227Z,29.4
2018-07-22T11:21:54.156Z,28.2
2018-07-22T11:22:56.048Z,28.5
2018-07-22T11:23:57.845Z,28.7
2018-07-22T11:24:59.551Z,28.2
2018-07-22T11:26:01.194Z,29.0
2018-07-22T11:27:03.198Z,28.7
2018-07-22T11:28:05.058Z,29.0
2018-07-22T11:29:06.784Z,28.3
2018-07-22T11:30:08.509Z,27.9
2018-07-22T11:31:10.185Z,27.8
2018-07-22T11:32:12.103Z,28.0
2018-07-22T11:33:13.820Z,27.9
2018-07-22T11:34:15.533Z,29.1
2018-07-22T11:35:17.259Z,29.0
2018-07-22T11:36:19.016Z,28.8
2018-07-22T11:37:20.800Z,27.8
2018-07-22T11:38:23.491Z,28.9
2018-07-22T11:39:25.212Z,27.3
2018-07-22T11:40:26.938Z,26.7
2018-07-22T11:41:28.694Z,27.7
2018-07-22T11:42:30.689Z,27.8
2018-07-22T11:43:32.334Z,26.7
2018-07-22T11:44:34.074Z,27.7
2018-07-22T11:45:35.895Z,26.9
2018-07-22T11:46:37.587Z,26.6
2018-07-22T11:47:39.210Z,27.1
2018-07-22T11:48:40.971Z,26.6
2018-07-22T11:49:42.843Z,26.6
2018-07-22T11:50:44.658Z,28.6
2018-07-22T11:51:46.512Z,29.4
2018-07-22T11:52:48.320Z,28.5
2018-07-22T11:53:50.116Z,27.4
2018-07-22T11:54:52.151Z,26.8
2018-07-22T11:55:53.870Z,26.1
2018-07-22T11:56:55.713Z,26.8
2018-07-22T11:57:57.594Z,26.0
2018-07-22T11:58:59.279Z,27.1
2018-07-22T12:00:01.095Z,26.0
2018-07-22T12:01:02.784Z,25.2
2018-07-22T12:02:04.560Z,25.4
2018-07-22T12:03:06.253Z,25.2
2018-07-22T12:04:07.976Z,25.5
2018-07-22T12:05:09.813Z,25.1
2018-07-22T12:06:11.567Z,25.1
2018-07-22T12:07:13.381Z,23.9
2018-07-22T12:08:15.154Z,24.3
2018-07-22T12:09:16.822Z,25.7
2018-07-22T12:10:18.723Z,24.1
2018-07-22T12:11:20.648Z,24.0
2018-07-22T12:12:22.338Z,25.5
2018-07-22T12:13:23.991Z,24.8
2018-07-22T12:14:25.895Z,25.3
2018-07-22T12:15:27.635Z,24.2
2018-07-22T12:16:29.352Z,25.4
2018-07-22T12:17:31.361Z,24.4
2018-07-22T12:18:33.237Z,24.5
2018-07-22T12:19:34.996Z,24.2
2018-07-22T12:20:36.741Z,24.6
2018-07-22T12:21:38.395Z,24.1
2018-07-22T12:22:40.020Z,23.4
2018-07-22T12:23:41.771Z,23.5
2018-07-22T12:24:43.622Z,24.0
2018-07-22T12:25:45.403Z,22.7
2018-07-22T12:26:47.225Z,23.2
2018-07-22T12:27:49.014Z,24.0
2018-07-22T12:28:50.958Z,24.9
2018-07-22T12:29:52.648Z,26.1
2018-07-22T12:30:54.350Z,27.8
2018-07-22T12:31:56.155Z,27.9
2018-07-22T12:32:57.993Z,29.3
2018-07-22T12:33:59.942Z,27.9
2018-07-22T12:35:01.677Z,26.3
2018-07-22T12:36:03.514Z,28.0
2018-07-22T12:37:05.396Z,25.4
2018-07-22T12:38:07.109Z,24.8
2018-07-22T12:39:08.883Z,25.6
2018-07-22T12:40:10.738Z,26.5
2018-07-22T12:41:12.339Z,29.2
2018-07-22T12:42:14.193Z,29.1
2018-07-22T12:43:15.994Z,28.2
2018-07-22T12:44:17.815Z,27.4
2018-07-22T12:45:19.528Z,29.2
2018-07-22T12:46:21.370Z,28.8
2018-07-22T12:47:23.095Z,29.4
2018-07-22T12:48:24.842Z,31.6
2018-07-22T12:49:26.622Z,30.4
2018-07-22T12:50:28.332Z,30.4
2018-07-22T12:51:30.174Z,30.3
2018-07-22T12:52:31.833Z,30.0
2018-07-22T12:53:33.531Z,30.3
2018-07-22T12:54:35.338Z,31.0
2018-07-22T12:55:37.102Z,29.6
2018-07-22T12:56:38.864Z,27.6
2018-07-22T12:57:40.774Z,29.6
2018-07-22T12:58:42.593Z,28.3
2018-07-22T12:59:44.364Z,27.1
2018-07-22T13:00:46.198Z,27.9
2018-07-22T13:01:47.971Z,29.2
2018-07-22T13:02:49.744Z,29.4
2018-07-22T13:03:51.560Z,28.3
2018-07-22T13:04:53.397Z,28.0
2018-07-22T13:05:55.108Z,27.8
2018-07-22T13:06:56.878Z,28.8
2018-07-22T13:07:58.678Z,28.3
2018-07-22T13:09:00.520Z,28.2
2018-07-22T13:10:02.245Z,29.3
2018-07-22T13:11:04.261Z,30.5
2018-07-22T13:12:06.058Z,31.1
2018-07-22T13:13:07.800Z,30.5
2018-07-22T13:14:09.422Z,31.6
2018-07-22T13:15:11.338Z,31.6
2018-07-22T13:16:13.164Z,31.1
2018-07-22T13:17:14.944Z,30.7
2018-07-22T13:18:16.895Z,31.0
2018-07-22T13:19:18.744Z,31.5
2018-07-22T13:20:20.398Z,31.4
2018-07-22T13:21:22.224Z,31.4
2018-07-22T13:22:23.943Z,30.4
2018-07-22T13:23:25.824Z,30.4
2018-07-22T13:24:27.552Z,29.5
2018-07-22T13:25:29.334Z,29.5
2018-07-22T13:26:31.101Z,29.6
2018-07-22T13:27:32.881Z,29.3
2018-07-22T13:28:34.591Z,29.9
2018-07-22T13:29:36.390Z,32.5
2018-07-22T13:30:38.161Z,32.2
2018-07-22T13:31:39.886Z,32.1
2018-07-22T13:32:41.573Z,31.9
2018-07-22T13:33:43.214Z,31.4
2018-07-22T13:34:45.015Z,33.3
2018-07-22T13:35:46.629Z,34.3
2018-07-22T13:36:48.454Z,34.4
2018-07-22T13:37:50.184Z,33.9
2018-07-22T13:38:51.805Z,34.6
2018-07-22T13:39:53.600Z,34.0
2018-07-22T13:40:55.245Z,33.8